Time;durP1;ratioP1;P1;durP2;ratioP2;P2;SDS_P1;SDS_P2;PMS_P1;PMS_P2;Temp;Humidity;BMP_temperature;BMP_pressure;BME280_temperature;BME280_humidity;BME280_pressure;Samples;Min_cycle;Max_cycle;Signal;HPM_P1;HPM_P2
2021/01/15 00:00:58;;;;;;;9.10;5.18;;;;;;;;;;5004210;28;20217;-86
2021/01/15 00:04:02;;;;;;;10.13;5.90;;;;;;;;;;5004286;28;20177;-86
2021/01/15 00:07:07;;;;;;;10.70;5.13;;;;;;;;;;5004299;28;20173;-85
2021/01/15 00:10:11;;;;;;;8.07;5.40;;;;;;;;;;5003847;28;20217;-85
2021/01/15 00:13:15;;;;;;;10.25;5.15;;;;;;;;;;5004249;28;20177;-86
2021/01/15 00:16:27;;;;;;;10.75;5.07;;;;;;;;;;5004286;28;20197;-85
2021/01/15 00:19:32;;;;;;;9.40;5.30;;;;;;;;;;4992748;28;20201;-86
2021/01/15 00:22:43;;;;;;;8.05;4.72;;;;;;;;;;4992862;28;20177;-86
2021/01/15 00:25:48;;;;;;;10.48;5.10;;;;;;;;;;5003748;28;20178;-85
2021/01/15 00:28:53;;;;;;;8.80;5.25;;;;;;;;;;5003921;28;20534;-86
2021/01/15 00:31:57;;;;;;;8.93;5.32;;;;;;;;;;5004238;28;20201;-85
2021/01/15 00:35:01;;;;;;;9.27;5.00;;;;;;;;;;5003767;28;20185;-85
2021/01/15 00:38:05;;;;;;;9.45;4.88;;;;;;;;;;5003619;28;20181;-85
2021/01/15 00:41:09;;;;;;;8.85;4.95;;;;;;;;;;4992249;28;20553;-86
2021/01/15 00:44:13;;;;;;;9.55;4.97;;;;;;;;;;5003472;28;20182;-86
2021/01/15 00:47:17;;;;;;;10.27;4.93;;;;;;;;;;4992260;28;20177;-86
2021/01/15 00:50:22;;;;;;;8.88;5.35;;;;;;;;;;5003152;28;20217;-86
2021/01/15 00:53:26;;;;;;;11.20;5.22;;;;;;;;;;4992209;28;20181;-86
2021/01/15 00:56:30;;;;;;;11.60;5.32;;;;;;;;;;5025963;28;20178;-86
2021/01/15 00:59:35;;;;;;;8.07;5.60;;;;;;;;;;4991952;28;20229;-86
2021/01/15 01:02:55;;;;;;;11.50;6.38;;;;;;;;;;4994194;28;20181;-86
2021/01/15 01:05:59;;;;;;;8.80;5.20;;;;;;;;;;4991932;28;20177;-86
2021/01/15 01:09:04;;;;;;;11.15;5.78;;;;;;;;;;4991918;28;20181;-86
2021/01/15 01:12:08;;;;;;;10.73;5.80;;;;;;;;;;5002560;28;20201;-86
2021/01/15 01:15:13;;;;;;;9.05;5.22;;;;;;;;;;4991893;28;20177;-85
2021/01/15 01:18:18;;;;;;;11.52;4.85;;;;;;;;;;4991798;28;20517;-86
2021/01/15 01:21:23;;;;;;;11.07;5.55;;;;;;;;;;4991430;28;20723;-85
2021/01/15 01:24:27;;;;;;;12.77;5.97;;;;;;;;;;4991779;28;20186;-86
2021/01/15 01:27:31;;;;;;;12.27;6.43;;;;;;;;;;4991886;28;20186;-85
2021/01/15 01:30:37;;;;;;;12.07;6.25;;;;;;;;;;5013878;28;20213;-86
2021/01/15 01:33:42;;;;;;;10.88;5.75;;;;;;;;;;5002692;28;20198;-86
2021/01/15 01:36:47;;;;;;;11.80;5.90;;;;;;;;;;4991437;28;20178;-86
2021/01/15 01:39:51;;;;;;;7.70;5.97;;;;;;;;;;4991276;28;20222;-86
2021/01/15 01:42:55;;;;;;;11.00;6.30;;;;;;;;;;5002577;28;20181;-86
2021/01/15 01:46:04;;;;;;;9.57;5.90;;;;;;;;;;4991417;28;20205;-85
2021/01/15 01:49:09;;;;;;;11.77;6.07;;;;;;;;;;5013893;28;20209;-85
2021/01/15 01:52:13;;;;;;;12.60;6.80;;;;;;;;;;4991459;28;20182;-85
2021/01/15 01:55:18;;;;;;;8.93;6.25;;;;;;;;;;5002249;28;20536;-85
2021/01/15 01:58:23;;;;;;;11.57;6.38;;;;;;;;;;5014510;28;20182;-85
2021/01/15 02:01:27;;;;;;;8.45;5.72;;;;;;;;;;5002041;28;20232;-85
2021/01/15 02:04:31;;;;;;;9.73;5.82;;;;;;;;;;5002266;28;20186;-85
2021/01/15 02:07:36;;;;;;;11.63;5.85;;;;;;;;;;5002220;28;20182;-85
2021/01/15 02:11:11;;;;;;;12.65;6.22;;;;;;;;;;4990683;28;20224;-85
2021/01/15 02:14:27;;;;;;;10.35;5.80;;;;;;;;;;5002423;28;20621;-85
2021/01/15 02:17:40;;;;;;;8.07;5.45;;;;;;;;;;4990830;28;20193;-86
2021/01/15 02:21:01;;;;;;;8.73;5.65;;;;;;;;;;5002059;28;20696;-85
2021/01/15 02:24:32;;;;;;;9.00;5.50;;;;;;;;;;5013274;28;20182;-85
2021/01/15 02:27:57;;;;;;;8.48;5.78;;;;;;;;;;5002396;28;20189;-85
2021/01/15 02:31:30;;;;;;;9.27;5.70;;;;;;;;;;5002187;28;20217;-85
2021/01/15 02:34:55;;;;;;;8.93;5.75;;;;;;;;;;4990957;28;20182;-85
2021/01/15 02:38:07;;;;;;;11.77;6.00;;;;;;;;;;5002160;28;20185;-85
2021/01/15 02:41:23;;;;;;;11.75;6.45;;;;;;;;;;5001524;28;20229;-85
2021/01/15 02:44:29;;;;;;;11.70;6.50;;;;;;;;;;4990378;28;20213;-85
2021/01/15 02:47:53;;;;;;;8.73;5.97;;;;;;;;;;4990879;28;20205;-85
2021/01/15 02:51:01;;;;;;;11.05;5.28;;;;;;;;;;4993375;28;20689;-86
2021/01/15 02:54:06;;;;;;;13.57;7.03;;;;;;;;;;4982262;28;20202;-85
2021/01/15 02:57:10;;;;;;;10.20;6.78;;;;;;;;;;4989048;28;20194;-86
2021/01/15 03:00:17;;;;;;;12.15;6.32;;;;;;;;;;5013621;28;20229;-84
2021/01/15 03:03:34;;;;;;;8.82;6.47;;;;;;;;;;5002252;28;20181;-85
2021/01/15 03:06:50;;;;;;;9.65;5.70;;;;;;;;;;5001633;28;20629;-85
2021/01/15 03:10:01;;;;;;;10.15;5.85;;;;;;;;;;4994138;28;20233;-85
2021/01/15 03:13:06;;;;;;;8.90;5.55;;;;;;;;;;4994563;28;20532;-85
2021/01/15 03:16:13;;;;;;;13.45;6.80;;;;;;;;;;4994100;28;20185;-85
2021/01/15 03:19:18;;;;;;;10.40;6.55;;;;;;;;;;4994201;28;20185;-85
2021/01/15 03:22:23;;;;;;;11.10;6.75;;;;;;;;;;5005562;28;20182;-85
2021/01/15 03:25:27;;;;;;;11.18;6.57;;;;;;;;;;4993979;28;20185;-85
2021/01/15 03:28:31;;;;;;;13.35;7.05;;;;;;;;;;5005068;28;20522;-85
2021/01/15 03:31:35;;;;;;;13.38;7.20;;;;;;;;;;5004999;28;20213;-85
2021/01/15 03:34:39;;;;;;;15.98;8.70;;;;;;;;;;4993839;28;20526;-85
2021/01/15 03:37:43;;;;;;;14.07;7.47;;;;;;;;;;4993831;28;20211;-85
2021/01/15 03:40:47;;;;;;;13.38;7.28;;;;;;;;;;5015829;28;20689;-84
2021/01/15 03:43:52;;;;;;;10.68;6.70;;;;;;;;;;5016324;28;20173;-85
2021/01/15 03:46:56;;;;;;;12.48;6.45;;;;;;;;;;5004762;28;20174;-85
2021/01/15 03:50:00;;;;;;;11.23;6.75;;;;;;;;;;5004771;28;20213;-85
2021/01/15 03:53:05;;;;;;;12.63;6.88;;;;;;;;;;4993754;28;20513;-85
2021/01/15 03:56:10;;;;;;;8.90;6.15;;;;;;;;;;4993165;28;20548;-85
2021/01/15 03:59:14;;;;;;;10.68;7.18;;;;;;;;;;5004579;28;20197;-85
2021/01/15 04:02:18;;;;;;;15.05;7.53;;;;;;;;;;4993363;28;20177;-85
2021/01/15 04:05:22;;;;;;;13.85;6.88;;;;;;;;;;4993253;28;20178;-85
2021/01/15 04:08:26;;;;;;;12.02;6.85;;;;;;;;;;4993274;28;20177;-85
2021/01/15 04:11:31;;;;;;;10.68;7.28;;;;;;;;;;5018976;22;20727;-86
2021/01/15 04:14:35;;;;;;;13.60;6.53;;;;;;;;;;4984725;28;20174;-86
2021/01/15 04:17:39;;;;;;;11.45;6.50;;;;;;;;;;4984690;28;20211;-86
2021/01/15 04:20:44;;;;;;;11.00;6.35;;;;;;;;;;4975841;28;20231;-86
2021/01/15 04:23:48;;;;;;;12.27;6.63;;;;;;;;;;4954084;28;20178;-86
2021/01/15 04:26:53;;;;;;;11.98;6.75;;;;;;;;;;4976141;28;20179;-86
2021/01/15 04:29:59;;;;;;;12.00;6.97;;;;;;;;;;4975871;28;20187;-86
2021/01/15 04:33:03;;;;;;;12.55;6.70;;;;;;;;;;4959144;28;20198;-86
2021/01/15 04:36:11;;;;;;;16.65;8.10;;;;;;;;;;4995457;28;20186;-86
2021/01/15 04:39:16;;;;;;;12.63;6.78;;;;;;;;;;4983961;28;20202;-86
2021/01/15 04:42:23;;;;;;;10.82;6.80;;;;;;;;;;4984714;28;20590;-86
2021/01/15 04:45:27;;;;;;;12.52;8.32;;;;;;;;;;4994952;28;20190;-86
2021/01/15 04:48:34;;;;;;;13.15;7.18;;;;;;;;;;4994775;28;20201;-86
2021/01/15 04:51:40;;;;;;;13.45;7.53;;;;;;;;;;4983635;28;20214;-86
2021/01/15 04:54:53;;;;;;;12.73;7.05;;;;;;;;;;4983936;28;20183;-86
2021/01/15 04:57:59;;;;;;;9.77;6.70;;;;;;;;;;4994724;28;20182;-85
2021/01/15 05:01:03;;;;;;;15.30;7.60;;;;;;;;;;4982890;28;20226;-86
2021/01/15 05:04:09;;;;;;;11.80;7.32;;;;;;;;;;4994860;28;20186;-86
2021/01/15 05:07:14;;;;;;;12.68;7.55;;;;;;;;;;4994898;28;20179;-86
2021/01/15 05:10:24;;;;;;;11.05;6.47;;;;;;;;;;4983208;28;20712;-86
2021/01/15 05:13:35;;;;;;;12.65;7.60;;;;;;;;;;4972310;28;20633;-85
2021/01/15 05:16:42;;;;;;;13.27;6.68;;;;;;;;;;4983521;28;20182;-86
2021/01/15 05:19:46;;;;;;;11.95;6.95;;;;;;;;;;4983098;28;20566;-85
2021/01/15 05:22:50;;;;;;;12.15;6.95;;;;;;;;;;4994485;28;20174;-85
2021/01/15 05:25:54;;;;;;;11.27;7.13;;;;;;;;;;4994115;28;20669;-86
2021/01/15 05:29:01;;;;;;;15.13;7.68;;;;;;;;;;4972081;28;20190;-86
2021/01/15 05:32:05;;;;;;;11.60;7.38;;;;;;;;;;4993179;28;20213;-87
2021/01/15 05:35:10;;;;;;;11.35;7.00;;;;;;;;;;4983286;28;20186;-88
2021/01/15 05:38:16;;;;;;;13.65;8.10;;;;;;;;;;4993910;28;20690;-88
2021/01/15 05:41:24;;;;;;;11.85;7.22;;;;;;;;;;4982661;28;20225;-88
2021/01/15 05:44:33;;;;;;;12.23;7.53;;;;;;;;;;4982839;28;20179;-88
2021/01/15 05:47:45;;;;;;;11.65;7.10;;;;;;;;;;4983124;28;20187;-88
2021/01/15 05:50:49;;;;;;;12.05;7.40;;;;;;;;;;4982788;28;20214;-88
2021/01/15 05:53:53;;;;;;;13.93;7.90;;;;;;;;;;4994043;28;20182;-88
2021/01/15 05:56:59;;;;;;;13.57;7.35;;;;;;;;;;4993884;28;20198;-88
2021/01/15 06:00:03;;;;;;;13.38;7.78;;;;;;;;;;4982729;28;20206;-88
2021/01/15 06:03:13;;;;;;;14.80;7.70;;;;;;;;;;4974218;28;20183;-86
2021/01/15 06:06:18;;;;;;;14.38;7.80;;;;;;;;;;4963334;28;20179;-87
2021/01/15 06:09:22;;;;;;;12.48;8.30;;;;;;;;;;4974763;28;20557;-87
2021/01/15 06:12:39;;;;;;;15.57;8.73;;;;;;;;;;5009205;28;20679;-86
2021/01/15 06:15:45;;;;;;;15.45;7.85;;;;;;;;;;4985256;28;20201;-86
2021/01/15 06:18:58;;;;;;;16.45;8.63;;;;;;;;;;5013772;28;20181;-86
2021/01/15 06:22:03;;;;;;;13.60;8.13;;;;;;;;;;4999745;28;20222;-86
2021/01/15 06:25:29;;;;;;;17.23;8.52;;;;;;;;;;4994144;28;20182;-86
2021/01/15 06:28:35;;;;;;;15.75;8.50;;;;;;;;;;5002595;28;20190;-86
2021/01/15 06:31:51;;;;;;;13.45;8.02;;;;;;;;;;5003223;28;20643;-86
2021/01/15 06:34:55;;;;;;;14.73;7.97;;;;;;;;;;4997808;28;20194;-86
2021/01/15 06:38:07;;;;;;;17.52;8.93;;;;;;;;;;4981821;28;20193;-85
2021/01/15 06:41:17;;;;;;;16.52;7.60;;;;;;;;;;5004867;28;20222;-86
2021/01/15 06:44:22;;;;;;;17.95;9.00;;;;;;;;;;4997669;28;20201;-86
2021/01/15 06:47:27;;;;;;;11.35;7.88;;;;;;;;;;5008828;28;20198;-86
2021/01/15 06:50:32;;;;;;;17.08;9.32;;;;;;;;;;4986469;28;20712;-86
2021/01/15 06:53:38;;;;;;;12.93;8.10;;;;;;;;;;4985831;28;20179;-86
2021/01/15 06:57:09;;;;;;;16.73;8.70;;;;;;;;;;4986191;28;20183;-86
2021/01/15 07:00:20;;;;;;;13.50;8.27;;;;;;;;;;4985997;28;20637;-86
2021/01/15 07:03:51;;;;;;;17.40;8.90;;;;;;;;;;4997496;28;20656;-86
2021/01/15 07:07:14;;;;;;;14.68;8.85;;;;;;;;;;4986388;28;20182;-86
2021/01/15 07:10:18;;;;;;;16.08;9.68;;;;;;;;;;4996758;28;20245;-86
2021/01/15 07:13:28;;;;;;;14.02;9.93;;;;;;;;;;4997494;28;20186;-86
2021/01/15 07:16:37;;;;;;;18.45;9.15;;;;;;;;;;4985797;28;20182;-86
2021/01/15 07:19:46;;;;;;;13.35;8.52;;;;;;;;;;4985675;28;20182;-86
2021/01/15 07:22:51;;;;;;;18.67;9.35;;;;;;;;;;4986642;28;20202;-86
2021/01/15 07:25:59;;;;;;;15.77;8.63;;;;;;;;;;5009400;28;20205;-85
2021/01/15 07:29:03;;;;;;;20.08;9.60;;;;;;;;;;5006694;28;20186;-86
2021/01/15 07:32:18;;;;;;;17.02;8.85;;;;;;;;;;4985422;28;20217;-86
2021/01/15 07:35:25;;;;;;;14.45;8.18;;;;;;;;;;4977119;28;20183;-86
2021/01/15 07:38:29;;;;;;;17.40;9.60;;;;;;;;;;4977125;28;20793;-86
2021/01/15 07:41:41;;;;;;;16.98;9.55;;;;;;;;;;4988130;28;20227;-86
2021/01/15 07:44:45;;;;;;;13.50;8.20;;;;;;;;;;4980158;28;20206;-86
2021/01/15 07:47:53;;;;;;;15.32;9.75;;;;;;;;;;4985245;28;20641;-86
2021/01/15 07:50:57;;;;;;;14.50;9.27;;;;;;;;;;4984949;28;20213;-86
2021/01/15 07:54:01;;;;;;;11.43;7.90;;;;;;;;;;5006881;28;20178;-86
2021/01/15 07:57:13;;;;;;;12.80;9.05;;;;;;;;;;5005868;28;20568;-86
2021/01/15 08:00:24;;;;;;;14.25;8.88;;;;;;;;;;5005369;28;20221;-86
2021/01/15 08:03:29;;;;;;;27.52;15.05;;;;;;;;;;5001224;28;20213;-87
2021/01/15 08:06:55;;;;;;;35.58;19.17;;;;;;;;;;4984794;28;20525;-86
2021/01/15 08:09:59;;;;;;;41.40;22.08;;;;;;;;;;4984478;28;20189;-84
2021/01/15 08:13:05;;;;;;;81.03;39.88;;;;;;;;;;4996053;28;20197;-86
2021/01/15 08:16:09;;;;;;;57.20;29.67;;;;;;;;;;4984558;28;20189;-86
2021/01/15 08:19:15;;;;;;;59.38;32.42;;;;;;;;;;4984598;28;20182;-86
2021/01/15 08:22:20;;;;;;;53.55;30.25;;;;;;;;;;4984597;28;20229;-86
2021/01/15 08:25:29;;;;;;;46.05;24.80;;;;;;;;;;4995983;28;20656;-86
2021/01/15 08:28:33;;;;;;;50.35;28.00;;;;;;;;;;4973256;28;20189;-87
2021/01/15 08:31:37;;;;;;;40.58;21.73;;;;;;;;;;4995556;28;20217;-86
2021/01/15 08:34:42;;;;;;;24.17;14.13;;;;;;;;;;4984730;28;20189;-86
2021/01/15 08:37:46;;;;;;;17.58;11.48;;;;;;;;;;4984543;28;20205;-86
2021/01/15 08:40:50;;;;;;;18.38;11.02;;;;;;;;;;4995609;28;20248;-86
2021/01/15 08:43:55;;;;;;;16.13;9.10;;;;;;;;;;4985489;28;20186;-86
2021/01/15 08:47:04;;;;;;;12.45;8.60;;;;;;;;;;4997895;28;20554;-86
2021/01/15 08:50:09;;;;;;;16.00;10.23;;;;;;;;;;4976274;28;20194;-86
2021/01/15 08:53:18;;;;;;;22.63;13.93;;;;;;;;;;4986088;28;20676;-84
2021/01/15 08:56:24;;;;;;;25.55;14.65;;;;;;;;;;4972761;28;20572;-84
2021/01/15 08:59:31;;;;;;;26.00;16.13;;;;;;;;;;4984202;28;20194;-83
2021/01/15 09:02:39;;;;;;;17.85;11.23;;;;;;;;;;4973149;28;20221;-84
2021/01/15 09:05:46;;;;;;;20.13;10.87;;;;;;;;;;4984280;28;20185;-84
2021/01/15 09:08:54;;;;;;;13.75;9.77;;;;;;;;;;4984224;28;20545;-83
2021/01/15 09:12:04;;;;;;;18.37;9.27;;;;;;;;;;4994715;28;20218;-84
2021/01/15 09:15:22;;;;;;;12.50;8.75;;;;;;;;;;4995464;28;20538;-84
2021/01/15 09:18:26;;;;;;;73.30;28.87;;;;;;;;;;4972769;28;20622;-84
2021/01/15 09:21:31;;;;;;;43.23;18.40;;;;;;;;;;4983555;28;20659;-84
2021/01/15 09:24:36;;;;;;;25.80;15.02;;;;;;;;;;4983649;28;21115;-83
2021/01/15 09:27:42;;;;;;;33.90;19.15;;;;;;;;;;4972298;28;20190;-84
2021/01/15 09:30:47;;;;;;;22.77;12.67;;;;;;;;;;4983288;28;20221;-84
2021/01/15 09:33:51;;;;;;;17.90;11.07;;;;;;;;;;4983346;28;20608;-84
2021/01/15 09:36:55;;;;;;;18.80;10.27;;;;;;;;;;4983325;28;20612;-84
2021/01/15 09:39:59;;;;;;;15.50;10.63;;;;;;;;;;4982563;28;20599;-84
2021/01/15 09:43:03;;;;;;;18.47;11.13;;;;;;;;;;5005506;28;20596;-84
2021/01/15 09:46:17;;;;;;;15.07;10.47;;;;;;;;;;4982729;28;20561;-84
2021/01/15 09:49:21;;;;;;;20.20;12.03;;;;;;;;;;4983142;28;20612;-84
2021/01/15 09:52:25;;;;;;;19.20;12.40;;;;;;;;;;4993979;28;20561;-84
2021/01/15 09:55:29;;;;;;;21.10;12.20;;;;;;;;;;4982779;28;20604;-84
2021/01/15 09:58:33;;;;;;;18.30;10.37;;;;;;;;;;4992720;28;20955;-83
2021/01/15 10:01:38;;;;;;;16.50;10.73;;;;;;;;;;5024771;28;20650;-84
2021/01/15 10:04:42;;;;;;;20.60;11.20;;;;;;;;;;4978431;28;21210;-84
2021/01/15 10:07:47;;;;;;;18.43;11.17;;;;;;;;;;4982059;28;20585;-84
2021/01/15 10:10:51;;;;;;;20.83;11.90;;;;;;;;;;4985579;28;20687;-84
2021/01/15 10:14:09;;;;;;;20.17;11.47;;;;;;;;;;4994015;28;20640;-84
2021/01/15 10:17:13;;;;;;;16.87;11.13;;;;;;;;;;4957169;28;20622;-84
2021/01/15 10:20:20;;;;;;;14.77;10.23;;;;;;;;;;4975390;28;20644;-84
2021/01/15 10:23:24;;;;;;;17.77;11.13;;;;;;;;;;4994733;28;20645;-84
2021/01/15 10:26:30;;;;;;;16.00;10.50;;;;;;;;;;4982846;28;20636;-84
2021/01/15 10:29:34;;;;;;;15.73;10.97;;;;;;;;;;5000000;28;20596;-84
2021/01/15 10:32:39;;;;;;;16.30;11.10;;;;;;;;;;4979530;28;20585;-84
2021/01/15 10:35:43;;;;;;;18.90;12.20;;;;;;;;;;4998866;28;20597;-84
2021/01/15 10:38:47;;;;;;;16.33;10.47;;;;;;;;;;5009680;28;20597;-84
2021/01/15 10:41:51;;;;;;;22.77;11.67;;;;;;;;;;4991077;28;21023;-84
2021/01/15 10:44:56;;;;;;;16.30;10.30;;;;;;;;;;4986469;28;20586;-84
2021/01/15 10:48:02;;;;;;;15.73;9.70;;;;;;;;;;4960996;28;20590;-83
2021/01/15 10:51:07;;;;;;;16.17;10.73;;;;;;;;;;4995087;28;20648;-83
2021/01/15 10:54:11;;;;;;;16.87;10.77;;;;;;;;;;5010950;28;20925;-83
2021/01/15 10:57:16;;;;;;;17.37;11.60;;;;;;;;;;5012210;28;20588;-84
2021/01/15 11:00:20;;;;;;;18.47;11.87;;;;;;;;;;5001715;28;21003;-87
2021/01/15 11:03:25;;;;;;;18.63;11.17;;;;;;;;;;5011349;28;20636;-86
2021/01/15 11:06:28;;;;;;;17.57;11.30;;;;;;;;;;5019446;28;20596;-86
2021/01/15 11:09:33;;;;;;;18.63;11.23;;;;;;;;;;5012173;28;20631;-86
2021/01/15 11:12:37;;;;;;;16.83;10.57;;;;;;;;;;5012866;28;20896;-86
2021/01/15 11:15:41;;;;;;;16.40;11.37;;;;;;;;;;5010695;28;21190;-86
2021/01/15 11:18:45;;;;;;;19.13;11.27;;;;;;;;;;5012586;28;20537;-86
2021/01/15 11:21:50;;;;;;;15.63;10.90;;;;;;;;;;4998758;28;20648;-86
2021/01/15 11:24:54;;;;;;;14.50;10.60;;;;;;;;;;4987538;28;20598;-86
2021/01/15 11:27:59;;;;;;;18.10;10.13;;;;;;;;;;4981994;28;20583;-85
2021/01/15 11:31:03;;;;;;;18.27;10.80;;;;;;;;;;5016232;22;20674;-72
2021/01/15 11:34:08;;;;;;;17.93;10.20;;;;;;;;;;5054551;28;21173;-72
2021/01/15 11:37:12;;;;;;;16.43;10.67;;;;;;;;;;5044907;28;20614;-72
2021/01/15 11:40:16;;;;;;;19.50;11.13;;;;;;;;;;5034783;28;20619;-72
2021/01/15 11:43:21;;;;;;;17.17;11.33;;;;;;;;;;5043568;28;20622;-72
2021/01/15 11:46:25;;;;;;;14.03;10.27;;;;;;;;;;5055935;28;20555;-72
2021/01/15 11:49:29;;;;;;;14.97;9.93;;;;;;;;;;5038693;28;20587;-72
2021/01/15 11:52:33;;;;;;;16.40;10.27;;;;;;;;;;5050623;28;20638;-72
2021/01/15 11:55:37;;;;;;;12.77;9.27;;;;;;;;;;5054732;28;20554;-72
2021/01/15 11:58:42;;;;;;;18.17;10.13;;;;;;;;;;5052015;28;20599;-71
2021/01/15 12:01:46;;;;;;;18.23;10.83;;;;;;;;;;5037456;28;21236;-71
2021/01/15 12:04:50;;;;;;;17.00;10.67;;;;;;;;;;5023467;28;20549;-71
2021/01/15 12:07:54;;;;;;;15.37;10.67;;;;;;;;;;5046144;28;20594;-71
2021/01/15 12:11:02;;;;;;;18.03;10.40;;;;;;;;;;5046756;28;20653;-70
2021/01/15 12:14:07;;;;;;;16.40;10.47;;;;;;;;;;5035425;28;20536;-71
2021/01/15 12:17:11;;;;;;;15.53;10.10;;;;;;;;;;5037563;28;20590;-71
2021/01/15 12:20:16;;;;;;;15.03;10.00;;;;;;;;;;5054267;28;20586;-71
2021/01/15 12:23:21;;;;;;;13.60;9.63;;;;;;;;;;5055277;28;21175;-71
2021/01/15 12:26:25;;;;;;;15.53;10.20;;;;;;;;;;5055041;28;21144;-71
2021/01/15 12:29:30;;;;;;;15.47;9.40;;;;;;;;;;5037158;28;20615;-71
2021/01/15 12:32:34;;;;;;;14.60;9.03;;;;;;;;;;5033899;28;20959;-71
2021/01/15 12:35:38;;;;;;;12.57;8.83;;;;;;;;;;5036276;28;20540;-73
2021/01/15 12:38:42;;;;;;;15.90;9.80;;;;;;;;;;5039772;28;20590;-70
2021/01/15 12:41:48;;;;;;;15.27;10.37;;;;;;;;;;5040372;28;20647;-71
2021/01/15 12:44:52;;;;;;;14.97;9.93;;;;;;;;;;5034934;28;21027;-70
2021/01/15 12:47:56;;;;;;;15.37;10.23;;;;;;;;;;5034822;28;21043;-70
2021/01/15 12:51:00;;;;;;;14.73;9.73;;;;;;;;;;5035546;28;20635;-70
2021/01/15 12:54:04;;;;;;;12.57;9.07;;;;;;;;;;5040151;28;20615;-70
2021/01/15 12:57:09;;;;;;;16.23;9.97;;;;;;;;;;5044215;28;20591;-70
2021/01/15 13:00:13;;;;;;;13.27;9.00;;;;;;;;;;5034652;28;20596;-71
2021/01/15 13:03:19;;;;;;;20.93;10.23;;;;;;;;;;5034902;28;20587;-70
2021/01/15 13:06:23;;;;;;;11.90;8.70;;;;;;;;;;5051797;28;20595;-71
2021/01/15 13:09:27;;;;;;;14.47;9.23;;;;;;;;;;5042967;28;20903;-71
2021/01/15 13:12:32;;;;;;;12.73;8.47;;;;;;;;;;5033919;28;21252;-70
2021/01/15 13:15:36;;;;;;;13.37;8.93;;;;;;;;;;5026309;22;20700;-74
2021/01/15 13:18:40;;;;;;;10.40;7.83;;;;;;;;;;4994794;28;20550;-74
2021/01/15 13:21:44;;;;;;;15.43;9.03;;;;;;;;;;4994599;28;20968;-74
2021/01/15 13:24:48;;;;;;;13.33;8.20;;;;;;;;;;4994568;28;20621;-74
2021/01/15 13:27:52;;;;;;;12.07;7.63;;;;;;;;;;4994565;28;20605;-74
2021/01/15 13:30:58;;;;;;;12.27;8.13;;;;;;;;;;4994453;28;20703;-72
2021/01/15 13:34:02;;;;;;;11.37;7.33;;;;;;;;;;4994678;28;20605;-73
2021/01/15 13:37:10;;;;;;;12.17;7.90;;;;;;;;;;4993658;28;20542;-73
2021/01/15 13:40:14;;;;;;;11.53;7.10;;;;;;;;;;4993715;28;20554;-72
2021/01/15 13:43:19;;;;;;;11.60;8.10;;;;;;;;;;4994536;28;20594;-72
2021/01/15 13:46:23;;;;;;;14.33;8.17;;;;;;;;;;4982293;28;20565;-72
2021/01/15 13:49:28;;;;;;;12.53;8.23;;;;;;;;;;4993659;28;21077;-72
2021/01/15 13:52:32;;;;;;;12.47;7.93;;;;;;;;;;4993377;28;21191;-72
2021/01/15 13:55:36;;;;;;;13.77;8.37;;;;;;;;;;4993308;28;20554;-72
2021/01/15 13:58:41;;;;;;;13.33;8.47;;;;;;;;;;4994363;28;20545;-72
2021/01/15 14:01:45;;;;;;;10.90;7.33;;;;;;;;;;4993910;28;20624;-72
2021/01/15 14:04:49;;;;;;;9.87;6.70;;;;;;;;;;5005373;28;20631;-71
2021/01/15 14:07:53;;;;;;;10.77;7.10;;;;;;;;;;4998784;28;20585;-72
2021/01/15 14:10:58;;;;;;;15.87;8.17;;;;;;;;;;4993925;28;20957;-72
2021/01/15 14:14:03;;;;;;;11.33;7.77;;;;;;;;;;4994128;28;20692;-72
2021/01/15 14:17:07;;;;;;;12.17;8.10;;;;;;;;;;4993807;28;20605;-72
2021/01/15 14:20:12;;;;;;;12.07;7.97;;;;;;;;;;4993757;28;20941;-72
2021/01/15 14:23:18;;;;;;;31.17;16.47;;;;;;;;;;4993698;28;20889;-73
2021/01/15 14:26:22;;;;;;;12.53;8.20;;;;;;;;;;4992961;28;20562;-72
2021/01/15 14:29:27;;;;;;;11.10;7.33;;;;;;;;;;4993174;28;21080;-73
2021/01/15 14:32:31;;;;;;;12.70;8.00;;;;;;;;;;4993879;28;20617;-74
2021/01/15 14:35:34;;;;;;;11.77;8.07;;;;;;;;;;4993629;28;21084;-74
2021/01/15 14:38:38;;;;;;;14.90;9.33;;;;;;;;;;4993920;28;20898;-75
2021/01/15 14:41:45;;;;;;;30.40;16.97;;;;;;;;;;5003984;28;20629;-76
2021/01/15 14:44:49;;;;;;;18.70;12.63;;;;;;;;;;4993742;28;20594;-75
2021/01/15 14:47:53;;;;;;;16.07;10.40;;;;;;;;;;5004237;28;20596;-75
2021/01/15 14:50:57;;;;;;;13.93;9.47;;;;;;;;;;5003932;28;20624;-75
2021/01/15 14:54:02;;;;;;;10.73;7.77;;;;;;;;;;4993701;28;20593;-75
2021/01/15 14:57:07;;;;;;;12.20;8.77;;;;;;;;;;4993387;28;20605;-75
2021/01/15 15:00:12;;;;;;;12.77;8.97;;;;;;;;;;4992626;28;20953;-75
2021/01/15 15:03:16;;;;;;;12.07;8.77;;;;;;;;;;4994309;28;20545;-75
2021/01/15 15:06:23;;;;;;;12.20;8.73;;;;;;;;;;4996696;28;20530;-76
2021/01/15 15:09:28;;;;;;;12.13;7.90;;;;;;;;;;4998747;28;20585;-76
2021/01/15 15:12:31;;;;;;;14.03;8.07;;;;;;;;;;5015883;28;20956;-76
2021/01/15 15:15:36;;;;;;;13.97;9.10;;;;;;;;;;5003916;28;20624;-77
2021/01/15 15:18:41;;;;;;;23.53;14.13;;;;;;;;;;4985378;28;20546;-77
2021/01/15 15:21:45;;;;;;;20.50;12.27;;;;;;;;;;5000777;28;20644;-77
2021/01/15 15:24:49;;;;;;;29.13;18.97;;;;;;;;;;4997188;28;20628;-77
2021/01/15 15:27:53;;;;;;;39.73;25.03;;;;;;;;;;5000326;28;20601;-79
2021/01/15 15:30:59;;;;;;;36.07;24.93;;;;;;;;;;4986713;28;21241;-78
2021/01/15 15:34:03;;;;;;;36.13;22.73;;;;;;;;;;4989912;28;20596;-78
2021/01/15 15:37:07;;;;;;;38.13;23.40;;;;;;;;;;5009628;28;20581;-76
2021/01/15 15:40:12;;;;;;;42.87;24.50;;;;;;;;;;5014086;28;20588;-76
2021/01/15 15:43:21;;;;;;;63.67;33.43;;;;;;;;;;5016586;28;21071;-75
2021/01/15 15:46:25;;;;;;;31.87;20.77;;;;;;;;;;5016063;28;20541;-75
2021/01/15 15:49:29;;;;;;;30.50;20.47;;;;;;;;;;5011196;28;20968;-74
2021/01/15 15:52:33;;;;;;;17.23;11.47;;;;;;;;;;4995888;28;20653;-74
2021/01/15 15:55:37;;;;;;;14.73;9.93;;;;;;;;;;5012459;28;20608;-75
2021/01/15 15:58:42;;;;;;;16.17;9.90;;;;;;;;;;5004000;28;20541;-75
2021/01/15 16:01:46;;;;;;;18.53;11.87;;;;;;;;;;5015620;28;20631;-74
2021/01/15 16:04:51;;;;;;;17.90;11.33;;;;;;;;;;5005642;28;20691;-75
2021/01/15 16:07:55;;;;;;;19.20;12.73;;;;;;;;;;4996224;28;20924;-74
2021/01/15 16:10:59;;;;;;;18.17;12.17;;;;;;;;;;4995894;28;20679;-74
2021/01/15 16:14:03;;;;;;;18.07;11.50;;;;;;;;;;4997762;28;20623;-74
2021/01/15 16:17:07;;;;;;;18.87;11.57;;;;;;;;;;5001074;28;20592;-73
2021/01/15 16:20:14;;;;;;;20.20;11.90;;;;;;;;;;5002307;28;20958;-73
2021/01/15 16:23:18;;;;;;;17.30;11.20;;;;;;;;;;5014999;28;20548;-73
2021/01/15 16:26:22;;;;;;;32.70;16.93;;;;;;;;;;5015280;28;20604;-73
2021/01/15 16:29:26;;;;;;;28.43;17.87;;;;;;;;;;5015453;28;20623;-73
2021/01/15 16:32:33;;;;;;;26.73;18.23;;;;;;;;;;4994612;28;20664;-73
2021/01/15 16:35:37;;;;;;;22.93;15.40;;;;;;;;;;4995610;28;20901;-73
2021/01/15 16:38:41;;;;;;;27.03;15.23;;;;;;;;;;5006657;28;20674;-73
2021/01/15 16:41:47;;;;;;;22.27;14.83;;;;;;;;;;5000959;28;20648;-73
2021/01/15 16:44:51;;;;;;;37.43;20.47;;;;;;;;;;4999836;28;20667;-73
2021/01/15 16:47:55;;;;;;;23.07;14.40;;;;;;;;;;5008584;28;21157;-73
2021/01/15 16:51:00;;;;;;;26.97;15.40;;;;;;;;;;5009558;28;20667;-73
2021/01/15 16:54:04;;;;;;;19.13;11.87;;;;;;;;;;4995112;28;20956;-73
2021/01/15 16:57:08;;;;;;;17.33;11.33;;;;;;;;;;4994221;28;21182;-73
2021/01/15 17:00:13;;;;;;;18.10;11.23;;;;;;;;;;5012361;28;20982;-72
2021/01/15 17:03:17;;;;;;;15.70;10.63;;;;;;;;;;5012642;28;21180;-72
2021/01/15 17:06:22;;;;;;;16.23;10.33;;;;;;;;;;5013831;28;20607;-72
2021/01/15 17:09:26;;;;;;;16.20;10.27;;;;;;;;;;5014227;28;20603;-72
2021/01/15 17:12:30;;;;;;;20.20;12.70;;;;;;;;;;5000838;28;21244;-72
2021/01/15 17:15:34;;;;;;;20.00;12.13;;;;;;;;;;4993825;28;20611;-72
2021/01/15 17:18:40;;;;;;;15.60;9.73;;;;;;;;;;4995068;28;20545;-72
2021/01/15 17:21:45;;;;;;;15.83;10.57;;;;;;;;;;5000181;28;21040;-72
2021/01/15 17:24:49;;;;;;;16.43;10.33;;;;;;;;;;5003218;28;21217;-72
2021/01/15 17:27:58;;;;;;;15.37;10.37;;;;;;;;;;4993099;28;20589;-72
2021/01/15 17:31:04;;;;;;;17.10;9.73;;;;;;;;;;4994582;28;20635;-72
2021/01/15 17:34:12;;;;;;;14.77;10.00;;;;;;;;;;4984426;28;20598;-72
2021/01/15 17:37:16;;;;;;;13.33;9.03;;;;;;;;;;5000722;28;20592;-72
2021/01/15 17:40:23;;;;;;;14.40;8.67;;;;;;;;;;5004155;28;20573;-72
2021/01/15 17:43:27;;;;;;;14.07;9.10;;;;;;;;;;5011844;28;21067;-72
2021/01/15 17:46:32;;;;;;;22.47;14.07;;;;;;;;;;4998836;28;21235;-72
2021/01/15 17:49:37;;;;;;;18.20;13.97;;;;;;;;;;5013986;28;21098;-72
2021/01/15 17:52:56;;;;;;;17.83;11.33;;;;;;;;;;5010215;28;20952;-72
2021/01/15 17:56:01;;;;;;;26.67;15.33;;;;;;;;;;4993584;28;20616;-71
2021/01/15 17:59:05;;;;;;;47.97;21.47;;;;;;;;;;5012614;28;21145;-71
2021/01/15 18:02:13;;;;;;;48.90;23.70;;;;;;;;;;5013215;28;20647;-71
2021/01/15 18:05:17;;;;;;;61.77;26.93;;;;;;;;;;5012648;28;20639;-71
2021/01/15 18:08:21;;;;;;;46.27;22.53;;;;;;;;;;5009586;28;20627;-71
2021/01/15 18:11:25;;;;;;;32.10;18.33;;;;;;;;;;5011981;28;20659;-71
2021/01/15 18:14:29;;;;;;;26.80;16.17;;;;;;;;;;5013234;28;21232;-72